Terminal Aerodrome Forecast
Issued by NWS Jackson, MS

Home | Current Version | Previous Version | Text Only | Print | Product List | Glossary On
Versions: 1 2 3 4 5 6 7 8 9 10 11 12 13 14 15
699
FTUS44 KJAN 182336 AAB
TAFJAN
TAF AMD
KJAN 182336Z 1900/1924 28022G35KT P6SM -RA BKN080
     FM190100 32018G32KT P6SM OVC025
     FM190400 34015G25KT P6SM BKN035
     FM190800 35013KT P6SM SKC=

USA.gov is the U.S. government's official web portal to all federal, state and local government web resources and services.